Rechercher aéroport 
image banner adimage banner adimage banner ad
image banner ad

5PA5 - Monongahela Valley Hospital

Situé à Monongahela, United States

ICAO - 5PA5, IATA -

Données fournies par Airmate  

Information générale

Coordonnées: N40°10'56" W79°54'36"
Élévation : 1104 feet MSL.
Variation magnétique : -09° East
Voir autres Aéroports à Pennsylvania

Données opérationnelles

Special qualification required
Heure actuelle UTC:
Heure actuelle locale:
Météo à : KAGC - Allegheny County ( 19 km )
METAR: KAGC 152053Z 32011G22KT 10SM FEW045 SCT100 23/12 A2991 RMK AO2 SLP127 T02280117 56003
TAF: KAGC 151720Z 1518/1618 32010G20KT P6SM BKN040 FM152300 33008KT P6SM SCT120 FM160300 32005KT P6SM SKC
Voir NOTAMs / SUP AIP / TFR affectant cet aéroport [VIEW]
Fréquences de communication: [VIEW]

Pistes:

Coordonnées de l'aéroport

Adresse: Monongahela United States

Vue satellite de 5PA5